• Join FlightAware (Why Join?)
  • Login
  • US Flag 
08:16AM EST


 

Airport Tracker/Info


-or-


 

Live Flight TrackerFlight Track Log ✈ N929DE ✈ 07-Sep-2013 ✈ KCQM - KALO

Flight Track Log - Related Links

Times and Time Zones

All times are in EDT time to prevent confusion due to time zone crossing. See the N929DE flight status page for this flight to view local times or setup timezone preferences in your user account.

Time Position Orientation Groundspeed Altitude Reporting Facility
EDT Latitude Longitude Course Direction KTS MPH feet Rate Location/Type
09:07AM 47.6156 -92.6714 177° South 146 168 5,200  Level Minneapolis Center
09:08AM 47.5639 -92.6683 178° South 169 194 5,500 600 Climbing Minneapolis Center
09:09AM 47.5200 -92.6664 178° South 168 193 6,500 780 Climbing Minneapolis Center
09:10AM 47.4850 -92.6636 177° South 146 168 7,100 240 Climbing Minneapolis Center
09:11AM 47.4419 -92.6631 179° South 145 167 7,100  Level Minneapolis Center
09:12AM 47.5234 -92.6699 177° South  Level FlightAware Approximate
09:12AM 47.3914 -92.6597 177° South 163 188 7,100  Level Minneapolis Center
09:13AM 47.3403 -92.6544 176° South 175 201 7,100  Level Minneapolis Center
09:14AM 47.2892 -92.6519 178° South 181 208 7,100 -60 Level Minneapolis Center
09:15AM 47.2386 -92.6517 180° South 181 208 7,000 -60 Descending Minneapolis Center
09:16AM 47.1875 -92.6472 177° South 183 211 7,000  Level Minneapolis Center
09:17AM 47.1261 -92.6444 178° South 183 211 7,000  Level Minneapolis Center
09:18AM 47.0753 -92.6422 178° South 183 211 7,000  Level Minneapolis Center
09:19AM 47.0244 -92.6381 177° South 183 211 7,000  Level Minneapolis Center
09:20AM 46.9839 -92.6364 178° South 183 211 7,000  Level Minneapolis Center
09:21AM 46.9217 -92.6314 177° South 184 212 7,100  Climbing Minneapolis Center
09:22AM 46.8811 -92.6289 178° South 184 212 7,000 -60 Descending Minneapolis Center
09:23AM 46.8206 -92.6275 179° South 182 209 7,000  Level Minneapolis Center
09:24AM 46.7706 -92.6242 177° South 182 209 7,100  Climbing Minneapolis Center
09:25AM 46.7200 -92.6214 178° South 182 209 7,100 -60 Level Minneapolis Center
09:26AM 46.6706 -92.6178 177° South 180 207 7,000 -60 Descending Minneapolis Center
09:27AM 46.6203 -92.6158 178° South 180 207 7,000  Level Minneapolis Center
09:28AM 46.5706 -92.6125 177° South 179 206 7,000  Level Minneapolis Center
09:29AM 46.5106 -92.6075 177° South 180 207 7,000  Level Minneapolis Center
09:30AM 46.4606 -92.6050 178° South 181 208 7,000  Level Minneapolis Center
09:31AM 46.4103 -92.6036 179° South 181 208 7,000  Level Minneapolis Center
09:32AM 46.3608 -92.5975 175° South 181 208 7,000  Level Minneapolis Center
09:33AM 46.3111 -92.5975 180° South 180 207 7,000  Level Minneapolis Center
09:34AM 46.2619 -92.5942 177° South 178 205 7,000  Level Minneapolis Center
09:35AM 46.2122 -92.5897 176° South 175 201 7,000  Level Minneapolis Center
09:36AM 46.1642 -92.5883 179° South 174 200 7,000  Level Minneapolis Center
09:37AM 46.1156 -92.5850 177° South 175 201 7,000  Level Minneapolis Center
09:38AM 46.0678 -92.5803 176° South 174 200 7,000  Level Minneapolis Center
09:39AM 46.0197 -92.5806 180° South 173 199 7,000  Level Minneapolis Center
09:40AM 45.9611 -92.5758 177° South 176 203 7,000  Level Minneapolis Center
09:41AM 45.9128 -92.5739 178° South 175 201 7,000  Level Minneapolis Center
09:42AM 45.8642 -92.5703 177° South 176 203 7,000  Level Minneapolis Center
09:43AM 45.8150 -92.5678 178° South 177 204 7,000  Level Minneapolis Center
09:44AM 45.7656 -92.5675 180° South 178 205 7,000  Level Minneapolis Center
09:45AM 45.7172 -92.5661 179° South 175 201 7,000  Level Minneapolis Center
09:46AM 45.6683 -92.5628 177° South 178 205 7,000  Level Minneapolis Center
09:47AM 45.6206 -92.5611 179° South 173 199 7,100  Climbing Minneapolis Center
09:48AM 45.5719 -92.5575 177° South 175 201 7,100  Level Minneapolis Center
09:49AM 45.5231 -92.5556 178° South 176 203 7,100 -60 Level Minneapolis Center
09:50AM 45.4650 -92.5522 178° South 175 201 7,000  Descending Minneapolis Center
09:51AM 45.4167 -92.5494 178° South 175 201 7,100  Climbing Minneapolis Center
09:52AM 45.3683 -92.5456 177° South 173 199 7,100  Level Minneapolis Center
09:54AM 45.3214 -92.5436 178° South 169 194 7,100  Level Minneapolis Center
09:55AM 45.2733 -92.5431 180° South 170 196 7,100  Level Minneapolis Center
09:56AM 45.2256 -92.5400 177° South 171 197 7,100  Level Minneapolis Center
09:57AM 45.1775 -92.5364 177° South 173 199 7,100  Level Minneapolis Center
09:58AM 45.1286 -92.5344 178° South 175 201 7,100  Level Minneapolis Center
09:59AM 45.0806 -92.5319 178° South 173 199 7,100  Level Minneapolis Center
10:00AM 45.0222 -92.5278 177° South 175 201 7,100  Level Minneapolis Center
10:01AM 44.9733 -92.5261 179° South 175 201 7,100  Level Minneapolis Center
10:02AM 44.9236 -92.5219 177° South 179 206 7,100  Level Minneapolis Center
10:03AM 44.8739 -92.5200 178° South 178 205 7,100  Level Minneapolis Center
10:04AM 44.8244 -92.5175 178° South 178 205 7,100  Level Minneapolis Center
10:05AM 44.7753 -92.5150 178° South 177 204 7,100  Level Minneapolis Center
10:06AM 44.7256 -92.5122 178° South 179 206 7,100  Level Minneapolis Center
10:07AM 44.6756 -92.5092 178° South 179 206 7,100  Level Minneapolis Center
10:08AM 44.6258 -92.5064 178° South 179 206 7,100  Level Minneapolis Center
10:09AM 44.5767 -92.5042 178° South 177 204 7,100  Level Minneapolis Center
10:10AM 44.5164 -92.5006 178° South 179 206 7,100  Level Minneapolis Center
10:11AM 44.4667 -92.4997 179° South 179 206 7,100  Level Minneapolis Center
10:12AM 44.4186 -92.4956 176° South 174 200 7,100  Level Minneapolis Center
10:13AM 44.3722 -92.4911 176° South 178 205 7,100  Level Minneapolis Center
10:14AM 44.3156 -92.4911 180° South 185 213 7,100  Level Minneapolis Center
10:15AM 44.2633 -92.4889 178° South 176 203 7,100  Level Minneapolis Center
10:16AM 44.2147 -92.4864 178° South 179 206 7,100  Level Minneapolis Center
10:17AM 44.1736 -92.4842 178° South 178 205 7,100  Level Minneapolis Center
10:18AM 44.1150 -92.4811 178° South 173 199 7,100  Level Minneapolis Center
10:19AM 44.0669 -92.4783 178° South 173 199 7,100  Level Minneapolis Center
10:20AM 44.0164 -92.4756 178° South 171 197 7,100  Level Minneapolis Center
10:21AM 43.9694 -92.4733 178° South 170 196 7,100  Level Minneapolis Center
10:22AM 43.9228 -92.4722 179° South 170 196 7,100  Level Minneapolis Center
10:23AM 43.8764 -92.4697 178° South 166 191 7,100  Level Minneapolis Center
10:24AM 43.8261 -92.4658 177° South 168 193 7,100  Level Minneapolis Center
10:25AM 43.7797 -92.4625 177° South 169 194 7,100  Level Minneapolis Center
10:26AM 43.7294 -92.4600 178° South 168 193 7,100  Level Minneapolis Center
10:27AM 43.6833 -92.4586 179° South 168 193 7,100  Level Minneapolis Center
10:28AM 43.6375 -92.4558 177° South 167 192 7,100  Level Minneapolis Center
10:29AM 43.5878 -92.4539 178° South 166 191 7,100  Level Minneapolis Center
10:30AM 43.5419 -92.4508 177° South 167 192 7,100  Level Minneapolis Center
10:31AM 43.4919 -92.4483 178° South 168 193 7,100  Level Minneapolis Center
10:32AM 43.4458 -92.4461 178° South 168 193 7,100  Level Minneapolis Center
10:33AM 43.3983 -92.4436 178° South 171 197 7,100  Level Minneapolis Center
10:34AM 43.3475 -92.4403 177° South 170 196 7,100  Level Minneapolis Center
10:35AM 43.3014 -92.4386 178° South 168 193 7,100  Level Minneapolis Center
10:36AM 43.2564 -92.4375 179° South 169 194 7,100  Level Minneapolis Center
10:38AM 43.2092 -92.4361 179° South 171 197 7,100  Level Minneapolis Center
10:39AM 43.1542 -92.4322 177° South 168 193 7,100 -300 Level Minneapolis Center
10:39AM 43.1233 -92.4328 181° South 167 192 6,700 -660 Descending Chicago Center
10:40AM 43.0742 -92.4311 179° South 171 197 6,100 -660 Descending Chicago Center
10:41AM 43.0242 -92.4250 175° South 177 204 5,400 -660 Descending Chicago Center
10:42AM 42.9744 -92.4219 177° South 179 206 4,800 -540 Descending Chicago Center
10:43AM 42.9244 -92.4186 177° South 180 207 4,300 -360 Descending Chicago Center
10:44AM 42.8669 -92.4164 178° South 178 205 4,100 -120 Descending Chicago Center
10:45AM 42.8211 -92.4142 178° South 173 199 4,100  Level Chicago Center
10:46AM 42.7764 -92.4100 176° South 169 194 4,100 -180 Level Chicago Center
10:47AM 42.7311 -92.4083 178° South 166 191 3,800 -480 Descending Chicago Center
10:48AM 42.6831 -92.4047 177° South 169 194 3,200 -720 Descending Chicago Center
10:49AM 42.6331 -92.3883 166° South 164 189 2,400 -660 Descending Chicago Center
10:50AM 42.6069 -92.3894 182° South 127 146 1,900 -540 Descending Chicago Center
10:52AM 42.5792 -92.3983 193° South 111 128 1,400 -540 Descending Chicago Center